Central Il Rgnl Arpt at Bloomington-Normal Airport
KBMI : now visible

Airfield :











YOU CAN JOIN US ON...

 
LOGIN :

Register | Disclaimer

   EN    FR    IT 

 









Legend :    VFR   Marginal VFR   IFR   Intensive IFR   Very Intensive IFR
Visi :
Ceiling :
>= 8 km
>= 3000ft
5 to 8 km
1000 to 3000 ft
1500m to 5 km
500 to 1000 ft
800 to 1500m
200 to 500 ft
< 800m
< 200 ft
Symbols :   Thunderstorms  Fog  Heavy snow  Heavy precipitations  Wind > 20 kt






- Airport Elevation : 871 ft
- IATA code : BMI


KBMI - Central Il Rgnl Arpt at Bloomington-Normal

CURRENT METAR :
  • 211556Z 09003KT 10SM OVC009 08/06 A3023 RMK AO2 SLP239 T00780056

EXPIRED METARs :
  • 211456Z 36004KT 10SM OVC009 07/06 A3023 RMK AO2 SLP237 T00720056 50018
  • 211356Z 33008KT 10SM OVC007 07/06 A3024 RMK AO2 SLP238 T00670056

TAF KBMI
Valid from the 21 at 15:00 until the 22 at 12:00 UTC


211519Z 2115/2212 36005KT P6SM OVC009
FM211600 01006KT P6SM OVC010
FM212000 09005KT P6SM BKN022
FM220000 09006KT P6SM VCTS BKN027CB
FM220400 10007KT 6SM -SHRA BR VCTS OVC019CB
FM220700 13008KT P6SM OVC009
KZAU FIR / North America



MET'MAP, your aeronautical weather chart ! - Copyright ORBIFLY December 2007 - Disclaimer

ORBIFLY MET'MAP TEAM :

Programming & Development : Alexandra Zaïnal
Concept & original design : Baudouin d'Aumeries
Assistance for programming : Marc-Olivier Méhu
Technical & hardware support : Manuel Goepfert

Contact : metmap@orbifly.com




SOURCES & CREDITS :

   NOAA       Earth
Advisory